Forside
METAR-TAF:

METAR-TAF

Lufthavne :

Marquette, Michigan, USA

Breddekreds: 46-21-13N, længdekreds: 087-23-45W, højde: 372 m

Aktuelle vejr

Denne rapport blev lavet for 53 minutter siden, kl. 15:47 UTC
Vind 11 kt fra vest
Temperatur 23°C
Fugtighed 57%
Tryk 1017 hPa
Sigt: 8.0 km
Spredte skyer i en højde af 10000 ft
tåge/dis

METAR: KSAW 031547Z 27011KT 5SM HZ SCT100 23/14 A3003

Tid: 12:40 (16:40 UTC)

Vejrudsigter

Denne rapport blev lavet for 3 timer og 24 minutter siden, kl. 13:16 UTC
Foreløbig gælder fra 03 på 13 UTC til 04 på 12 UTC
Vind 5 kt fra vest
Sigt: 8.0 km
Spredte skyer i en højde af 12000 ft
røg
Fra 03 på 1700 UTC
Vind 6 kt fra nord
Sigt: 9.7 km
Spredte skyer i en højde af 10000 ft
røg
Fra 03 på 2200 UTC
Vind 5 kt fra østnordøst
Sigt: 9.7 km
Spredte skyer i en højde af 10000 ft
røg
Fra 04 på 0000 UTC
Vind 4 kt fra varierende retninger
Sigt: 10 km
Nogle få skyer i en højde af 7000 ft

TAF: KSAW 031316Z 0313/0412 27005KT 5SM FU SCT120 FM031700 36006KT 6SM FU SCT100 FM032200 06005KT 6SM FU SCT100 FM040000 VRB04KT P6SM FEW070

Vejrobservationer og prognoser fra mere end 4000 lufthavne (METAR og TAF).

De gule og røde prikker repræsenterer de meteorologiske stationer.

Flyt musen over at se navnet på stationen.

Så klik over at se vejr observationer og prognoser.

At skifte det kort: Klik på de grønne knapper med et sort kors for at zoome ind; på den grønne knap med en bindestreg for at zoome ud; eller på de grønne pile for tilstødende kort.


METAR-TAF: